Información del aeropuerto LEAM

Información de pista
Pista 08 Longitud 10499 ft Anchura 148 ft
Elevación 26 ft Umbral 492 ft Rumbo 73
Pista 26 Longitud 10499 ft Anchura 148 ft
Elevación 70 ft Umbral 0 ft Rumbo 253
Frecuencias del aeropuerto
Tipo APP Nombre APP Frecuencia 118.35 MHZ
Tipo GND Nombre GND Frecuencia 121.7 MHZ
Tipo TWR Nombre TWR Frecuencia 118.35 MHZ
Radioayudas del aeropuerto
Tipo NDB Nombre Almeria Frecuencia 284 KHZ
Tipo NDB Nombre Almeria Frecuencia 310 KHZ
Tipo VOR-DME Nombre Almeria Frecuencia 114100 KHZ
Información meteorológica del aeropuerto y NOTAM
ADDS - METARS form results

(1652 UTC 29 November 2021)
Data provider http://aviationweather.gov/metar/data/
 
METAR text: LEAM 291630Z VRB02KT CAVOK 18/07 Q1019
Conditions at: LEAM (ALMERIA AIRPORT , ES) observed 1630 UTC 29 November 2021
Temperature: 18.0°C (64°F)
Dewpoint: 7.0°C (45°F) [RH = 49%]
Pressure (altimeter): 30.09 inches Hg (1019.0 mb)
Winds: variable direction winds at 2 MPH (2 knots; 1.0 m/s)
Visibility: 6 or more miles (10+ km)
Ceiling: ceiling and visibility are OK
Clouds: unknown
Weather: no significant weather observed at this time

METAR text: LEAM 291600Z VRB01KT CAVOK 19/06 Q1019
Conditions at: LEAM (ALMERIA AIRPORT , ES) observed 1600 UTC 29 November 2021
Temperature: 19.0°C (66°F)
Dewpoint: 6.0°C (43°F) [RH = 43%]
Pressure (altimeter): 30.09 inches Hg (1019.0 mb)
Winds: variable direction winds at 1 MPH (1 knots; 0.5 m/s)
Visibility: 6 or more miles (10+ km)
Ceiling: ceiling and visibility are OK
Clouds: unknown
Weather: no significant weather observed at this time

Forecast for: LEAM (ALMERIA AIRPORT , ES)
Text: TAF LEAM 291100Z 2912/3012 18008KT CAVOK TX18/2914Z TN09/3006Z
Forecast period: 1200 to 1700 UTC 29 November 2021
Forecast type: FROM: standard forecast or significant change
Winds: from the S (180 degrees) at 9 MPH (8 knots; 4.1 m/s)
Visibility: 6 or more miles (10+ km)
Ceiling: unknown
Clouds: missing
Weather: no significant weather forecast for this period
Text: BECMG 2917/2919 34010KT
Forecast period: 1700 UTC 29 November 2021 to 1200 UTC 30 November 2021
Forecast type: BECOMING: Conditions expected to become as follows by 1900 UTC 29 November 2021
Winds: from the NNW (340 degrees) at 12 MPH (10 knots; 5.1 m/s)
Visibility: 6 or more miles (10+ km)
Ceiling: unknown
Clouds: missing
Weather: no significant weather forecast for this period